Time;durP1;ratioP1;P1;durP2;ratioP2;P2;SDS_P1;SDS_P2;PMS_P1;PMS_P2;Temp;Humidity;BMP_temperature;BMP_pressure;BME280_temperature;BME280_humidity;BME280_pressure;Samples;Min_cycle;Max_cycle;Signal;HPM_P1;HPM_P2
2023/06/27 00:02:20;;;;;;;7.35;5.15;;;18.10;92.00;;;;;;6245055;22;20011;-80
2023/06/27 00:04:46;;;;;;;8.77;4.93;;;18.00;92.10;;;;;;6272690;22;20025;-81
2023/06/27 00:07:12;;;;;;;8.40;5.10;;;18.10;92.20;;;;;;6244019;22;20322;-81
2023/06/27 00:09:38;;;;;;;5.85;4.85;;;18.10;92.30;;;;;;6244504;22;20000;-81
2023/06/27 00:12:05;;;;;;;7.82;5.28;;;18.10;92.30;;;;;;6272318;22;19996;-82
2023/06/27 00:14:36;;;;;;;8.30;5.20;;;18.00;92.30;;;;;;6244889;22;20085;-81
2023/06/27 00:17:04;;;;;;;8.82;5.40;;;18.10;92.30;;;;;;6271657;22;20460;-81
2023/06/27 00:19:31;;;;;;;9.02;4.93;;;18.10;92.30;;;;;;6245128;22;20004;-81
2023/06/27 00:21:56;;;;;;;5.07;4.15;;;18.20;92.30;;;;;;6244689;22;20031;-81
2023/06/27 00:24:23;;;;;;;6.88;5.22;;;18.20;92.30;;;;;;6272057;22;19996;-81
2023/06/27 00:26:49;;;;;;;8.48;4.32;;;18.20;92.30;;;;;;6245393;22;20409;-80
2023/06/27 00:29:15;;;;;;;7.35;4.63;;;18.20;92.30;;;;;;6272145;22;20062;-81
2023/06/27 00:31:40;;;;;;;7.72;4.57;;;18.30;92.40;;;;;;6272510;22;20294;-81
2023/06/27 00:34:06;;;;;;;6.57;4.53;;;18.30;92.40;;;;;;6272083;22;19999;-81
2023/06/27 00:36:32;;;;;;;6.78;4.72;;;18.30;92.40;;;;;;6272113;22;20487;-81
2023/06/27 00:38:57;;;;;;;5.20;4.70;;;18.30;92.40;;;;;;6271751;22;20148;-80
2023/06/27 00:41:23;;;;;;;6.45;4.35;;;18.40;92.50;;;;;;6245068;22;20505;-81
2023/06/27 00:43:48;;;;;;;5.28;4.78;;;18.40;92.40;;;;;;6272576;22;20000;-81
2023/06/27 00:46:26;;;;;;;7.65;4.68;;;18.50;92.40;;;;;;6271239;22;20003;-81
2023/06/27 00:48:52;;;;;;;6.28;4.50;;;18.50;92.50;;;;;;6272140;22;20018;-81
2023/06/27 00:51:17;;;;;;;5.70;4.32;;;18.50;92.50;;;;;;6244519;22;20079;-81
2023/06/27 00:53:43;;;;;;;6.70;4.90;;;18.50;92.50;;;;;;6244870;22;20405;-81
2023/06/27 00:56:10;;;;;;;11.00;5.43;;;18.60;92.50;;;;;;6271718;22;19995;-81
2023/06/27 00:58:36;;;;;;;8.90;4.68;;;18.60;92.60;;;;;;6271487;22;20000;-81
2023/06/27 01:01:03;;;;;;;7.90;5.35;;;18.60;92.60;;;;;;6271272;22;20420;-82
2023/06/27 01:03:32;;;;;;;6.00;5.20;;;18.60;92.70;;;;;;6245031;22;19999;-80
2023/06/27 01:06:00;;;;;;;7.63;4.97;;;18.70;92.80;;;;;;6271500;22;20000;-81
2023/06/27 01:08:34;;;;;;;6.63;5.10;;;18.70;92.80;;;;;;6271509;22;20057;-81
2023/06/27 01:11:08;;;;;;;7.78;5.80;;;18.70;92.70;;;;;;6244480;22;20057;-81
2023/06/27 01:13:39;;;;;;;9.10;5.40;;;18.80;92.70;;;;;;6271565;22;19996;-81
2023/06/27 01:16:05;;;;;;;5.90;4.60;;;18.70;92.70;;;;;;6271425;22;20034;-81
2023/06/27 01:18:32;;;;;;;7.35;4.57;;;18.70;92.70;;;;;;6272064;22;20003;-81
2023/06/27 01:21:00;;;;;;;7.00;5.10;;;18.80;92.70;;;;;;6243731;22;20149;-81
2023/06/27 01:23:33;;;;;;;5.90;5.30;;;18.80;92.60;;;;;;6272005;22;20011;-81
2023/06/27 01:26:05;;;;;;;7.28;4.53;;;18.80;92.60;;;;;;6244291;22;20441;-81
2023/06/27 01:28:32;;;;;;;7.75;5.45;;;18.80;92.60;;;;;;6271071;22;20038;-81
2023/06/27 01:31:03;;;;;;;6.43;4.85;;;18.80;92.60;;;;;;6244160;22;20310;-81
2023/06/27 01:33:54;;;;;;;11.45;5.28;;;18.70;92.60;;;;;;6271979;22;20011;-82
2023/06/27 01:36:39;;;;;;;6.72;5.50;;;18.70;92.70;;;;;;6244376;22;20000;-80
2023/06/27 01:39:15;;;;;;;8.63;5.07;;;18.60;92.80;;;;;;6271140;22;20333;-80
2023/06/27 01:41:45;;;;;;;7.65;4.63;;;18.50;92.90;;;;;;6271828;22;20083;-81
2023/06/27 01:44:13;;;;;;;7.78;4.53;;;18.50;93.00;;;;;;6243852;22;20341;-80
2023/06/27 01:46:39;;;;;;;8.55;5.15;;;18.50;93.10;;;;;;6271469;22;20000;-80
2023/06/27 01:49:07;;;;;;;8.15;4.68;;;18.40;93.10;;;;;;6244410;22;20011;-81
2023/06/27 01:51:33;;;;;;;7.00;5.30;;;18.40;93.20;;;;;;6244031;22;20038;-81
2023/06/27 01:53:59;;;;;;;7.88;5.57;;;18.30;93.20;;;;;;6271395;22;19999;-81
2023/06/27 01:56:24;;;;;;;8.40;5.15;;;18.30;93.40;;;;;;6271651;22;20080;-81
2023/06/27 01:58:50;;;;;;;8.82;5.88;;;18.30;93.40;;;;;;6271120;22;20045;-80
2023/06/27 02:01:16;;;;;;;9.77;5.95;;;18.30;93.50;;;;;;6270725;22;20019;-81
2023/06/27 02:03:41;;;;;;;9.70;5.40;;;18.20;93.60;;;;;;6271982;22;19992;-81
2023/06/27 02:06:07;;;;;;;8.98;5.65;;;18.30;93.60;;;;;;6270743;22;20075;-81
2023/06/27 02:08:33;;;;;;;9.40;5.63;;;18.20;93.60;;;;;;6271385;22;20000;-81
2023/06/27 02:10:58;;;;;;;8.05;4.93;;;18.20;93.70;;;;;;6271248;22;20422;-80
2023/06/27 02:13:25;;;;;;;9.15;5.45;;;18.20;93.70;;;;;;6270811;22;20615;-82
2023/06/27 02:15:50;;;;;;;8.30;5.43;;;18.20;93.70;;;;;;6244395;22;20007;-82
2023/06/27 02:18:16;;;;;;;9.52;5.43;;;18.20;93.80;;;;;;6271462;22;20007;-82
2023/06/27 02:20:41;;;;;;;9.35;5.05;;;18.20;93.80;;;;;;6271948;22;20000;-82
2023/06/27 02:23:07;;;;;;;9.23;5.60;;;18.20;93.80;;;;;;6271726;22;20007;-82
2023/06/27 02:25:32;;;;;;;10.63;5.40;;;18.20;93.90;;;;;;6244601;22;20060;-81
2023/06/27 02:27:58;;;;;;;7.35;6.00;;;18.20;93.90;;;;;;6271999;22;20106;-82
2023/06/27 02:30:23;;;;;;;8.32;6.05;;;18.20;93.90;;;;;;6273662;22;20054;-82
2023/06/27 02:32:49;;;;;;;8.52;6.22;;;18.10;93.90;;;;;;6246863;22;20311;-81
2023/06/27 02:35:16;;;;;;;10.35;5.30;;;18.10;94.00;;;;;;6245976;22;20066;-80
2023/06/27 02:37:42;;;;;;;9.00;5.93;;;18.00;94.00;;;;;;6246943;22;20099;-82
2023/06/27 02:40:08;;;;;;;7.55;5.28;;;17.90;94.10;;;;;;6273772;22;20008;-82
2023/06/27 02:42:34;;;;;;;12.00;5.18;;;17.80;94.20;;;;;;6247295;22;20031;-81
2023/06/27 02:45:00;;;;;;;8.52;5.30;;;17.80;94.40;;;;;;6274005;22;20011;-81
2023/06/27 02:47:25;;;;;;;12.20;5.57;;;17.70;94.50;;;;;;6273323;22;20054;-81
2023/06/27 02:49:51;;;;;;;11.15;5.25;;;17.70;94.60;;;;;;6273040;22;20062;-78
2023/06/27 02:52:16;;;;;;;11.88;6.07;;;17.60;94.70;;;;;;6273036;22;20003;-82
2023/06/27 02:54:42;;;;;;;10.32;5.07;;;17.60;94.80;;;;;;6272960;22;19996;-82
2023/06/27 02:57:07;;;;;;;8.55;5.72;;;17.50;94.90;;;;;;6273017;22;20057;-81
2023/06/27 02:59:33;;;;;;;10.10;5.53;;;17.50;95.00;;;;;;6272414;22;20413;-82
2023/06/27 03:01:58;;;;;;;6.72;5.45;;;17.40;95.20;;;;;;6245823;22;20005;-82
2023/06/27 03:04:24;;;;;;;10.27;5.93;;;17.40;95.30;;;;;;6246011;22;20146;-82
2023/06/27 03:06:50;;;;;;;9.50;5.72;;;17.30;95.30;;;;;;6273603;22;20000;-82
2023/06/27 03:09:18;;;;;;;9.25;5.75;;;17.30;95.50;;;;;;6245261;22;20015;-82
2023/06/27 03:11:44;;;;;;;7.50;5.25;;;17.30;95.60;;;;;;6273723;22;20050;-82
2023/06/27 03:14:09;;;;;;;10.07;5.45;;;17.20;95.70;;;;;;6273098;22;20433;-82
2023/06/27 03:16:35;;;;;;;11.63;5.38;;;17.20;95.70;;;;;;6273565;22;20003;-82
2023/06/27 03:19:00;;;;;;;10.77;6.10;;;17.20;95.80;;;;;;6273087;22;20448;-82
2023/06/27 03:21:26;;;;;;;10.52;5.72;;;17.20;96.20;;;;;;6273363;22;20437;-82
2023/06/27 03:23:51;;;;;;;7.05;4.97;;;17.10;96.20;;;;;;6245655;22;20011;-81
2023/06/27 03:26:17;;;;;;;6.28;5.25;;;17.10;96.10;;;;;;6273080;22;20421;-82
2023/06/27 03:28:43;;;;;;;13.52;5.25;;;17.10;96.20;;;;;;6246166;22;20313;-81
2023/06/27 03:31:08;;;;;;;13.63;5.72;;;17.00;96.20;;;;;;6272939;22;20008;-82
2023/06/27 03:33:34;;;;;;;12.48;5.93;;;17.00;96.30;;;;;;6273385;22;19999;-81
2023/06/27 03:36:00;;;;;;;14.35;6.65;;;17.10;96.40;;;;;;6273069;22;20003;-82
2023/06/27 03:38:25;;;;;;;8.00;5.45;;;17.00;96.40;;;;;;6272510;22;20010;-82
2023/06/27 03:40:51;;;;;;;15.43;6.32;;;17.10;96.50;;;;;;6246170;22;20007;-82
2023/06/27 03:43:16;;;;;;;9.57;5.45;;;17.10;96.60;;;;;;6272797;22;20078;-82
2023/06/27 03:45:42;;;;;;;8.00;5.03;;;17.10;96.60;;;;;;6273410;22;20007;-81
2023/06/27 03:48:09;;;;;;;10.77;5.38;;;17.00;96.70;;;;;;6245571;22;20004;-82
2023/06/27 03:50:36;;;;;;;9.95;5.70;;;17.10;96.80;;;;;;6273255;22;20511;-81
2023/06/27 03:53:02;;;;;;;11.48;6.82;;;17.10;96.80;;;;;;6272179;22;20027;-82
2023/06/27 03:55:28;;;;;;;16.55;6.38;;;17.20;96.90;;;;;;6246031;22;19999;-81
2023/06/27 03:57:53;;;;;;;13.63;6.25;;;17.20;97.10;;;;;;6272922;22;20007;-81
2023/06/27 04:00:19;;;;;;;15.27;7.35;;;17.30;97.10;;;;;;6245748;22;20023;-81
2023/06/27 04:02:45;;;;;;;10.05;6.18;;;17.40;97.10;;;;;;6246123;22;20018;-81
2023/06/27 04:05:10;;;;;;;8.43;5.35;;;17.40;97.10;;;;;;6272949;22;20372;-81
2023/06/27 04:07:36;;;;;;;16.08;7.15;;;17.50;97.10;;;;;;6272318;22;20019;-82
2023/06/27 04:10:02;;;;;;;10.68;5.70;;;17.50;97.10;;;;;;6272581;22;20006;-81
2023/06/27 04:12:28;;;;;;;7.90;6.63;;;17.60;97.10;;;;;;6272286;22;20062;-81
2023/06/27 04:14:53;;;;;;;14.55;6.53;;;17.60;97.10;;;;;;6272293;22;20088;-81
2023/06/27 04:17:19;;;;;;;12.45;6.10;;;17.70;97.10;;;;;;6271389;22;20463;-81
2023/06/27 04:19:44;;;;;;;10.98;5.90;;;17.70;97.00;;;;;;6272965;22;20070;-81
2023/06/27 04:22:10;;;;;;;13.38;5.47;;;17.80;97.00;;;;;;6271988;22;20417;-82
2023/06/27 04:24:36;;;;;;;8.95;5.20;;;17.80;97.00;;;;;;6272642;22;19996;-81
2023/06/27 04:27:01;;;;;;;12.63;5.82;;;17.80;96.90;;;;;;6244900;22;20003;-81
2023/06/27 04:29:27;;;;;;;7.90;5.15;;;17.80;96.90;;;;;;6272586;22;20087;-81
2023/06/27 04:31:52;;;;;;;9.50;5.68;;;17.90;97.00;;;;;;6245476;22;20432;-82
2023/06/27 04:34:18;;;;;;;10.18;6.32;;;17.90;97.00;;;;;;6272732;22;19996;-81
2023/06/27 04:36:43;;;;;;;9.00;5.82;;;17.90;97.00;;;;;;6272300;22;20346;-82
2023/06/27 04:39:10;;;;;;;11.23;5.50;;;17.90;97.00;;;;;;6272399;22;20029;-81
2023/06/27 04:41:35;;;;;;;14.32;6.68;;;18.00;97.00;;;;;;6272563;22;20000;-82
2023/06/27 04:44:01;;;;;;;12.93;5.80;;;18.00;97.00;;;;;;6272259;22;19995;-82
2023/06/27 04:46:28;;;;;;;10.50;5.85;;;18.00;97.00;;;;;;6272601;22;20006;-82
2023/06/27 04:49:00;;;;;;;14.32;6.07;;;18.10;97.00;;;;;;6272039;22;20007;-81
2023/06/27 04:51:29;;;;;;;13.90;6.50;;;18.10;97.00;;;;;;6271657;22;20430;-81
2023/06/27 04:53:55;;;;;;;11.00;6.25;;;18.10;97.00;;;;;;6245277;22;20007;-82
2023/06/27 04:56:22;;;;;;;14.82;7.10;;;18.10;97.10;;;;;;6272501;22;20010;-81
2023/06/27 04:58:48;;;;;;;11.98;5.75;;;18.10;97.10;;;;;;6272799;22;20029;-82
2023/06/27 05:01:13;;;;;;;9.05;5.90;;;18.10;97.10;;;;;;6244878;22;20440;-82
2023/06/27 05:03:39;;;;;;;11.55;6.60;;;18.20;97.10;;;;;;6272397;22;20057;-82
2023/06/27 05:06:05;;;;;;;12.40;5.90;;;18.20;97.10;;;;;;6244274;22;20016;-81
2023/06/27 05:08:32;;;;;;;10.35;6.03;;;18.20;97.20;;;;;;6245091;22;20004;-82
2023/06/27 05:10:58;;;;;;;10.73;6.93;;;18.20;97.20;;;;;;6245101;22;20008;-81
2023/06/27 05:13:23;;;;;;;15.02;6.72;;;18.20;97.30;;;;;;6272269;22;20324;-81
2023/06/27 05:15:49;;;;;;;14.90;7.32;;;18.20;97.30;;;;;;6244660;22;20008;-81
2023/06/27 05:18:15;;;;;;;13.15;5.93;;;18.20;97.40;;;;;;6272092;22;20038;-81
2023/06/27 05:20:44;;;;;;;14.10;6.55;;;18.30;97.40;;;;;;6271846;22;20006;-81
2023/06/27 05:23:11;;;;;;;16.05;6.75;;;18.30;97.50;;;;;;6271822;22;20423;-81
2023/06/27 05:25:37;;;;;;;13.23;6.55;;;18.30;97.50;;;;;;6272274;22;20074;-81
2023/06/27 05:28:03;;;;;;;13.30;5.35;;;18.30;97.60;;;;;;6244414;22;20012;-82
2023/06/27 05:30:29;;;;;;;11.52;5.53;;;18.40;97.60;;;;;;6272226;22;20000;-81
2023/06/27 05:32:57;;;;;;;15.07;7.32;;;18.40;97.70;;;;;;6244313;22;20502;-81
2023/06/27 05:35:23;;;;;;;13.25;6.28;;;18.50;98.00;;;;;;6271634;22;20079;-81
2023/06/27 05:37:49;;;;;;;15.15;6.32;;;18.50;97.80;;;;;;6245037;22;20004;-81
2023/06/27 05:40:15;;;;;;;15.77;6.90;;;18.50;97.80;;;;;;6271723;22;20014;-81
2023/06/27 05:42:41;;;;;;;19.77;7.22;;;18.60;97.80;;;;;;6272456;22;20038;-81
2023/06/27 05:45:07;;;;;;;11.55;6.88;;;18.60;97.80;;;;;;6271929;22;20397;-80
2023/06/27 05:47:33;;;;;;;18.63;7.60;;;18.70;97.80;;;;;;6244517;22;20015;-81
2023/06/27 05:49:58;;;;;;;15.30;6.32;;;18.80;97.80;;;;;;6271473;22;20076;-81
2023/06/27 05:52:24;;;;;;;13.40;5.70;;;18.80;97.80;;;;;;6271992;22;20534;-81
2023/06/27 05:54:51;;;;;;;20.65;7.22;;;18.90;97.80;;;;;;6244918;22;20004;-81
2023/06/27 05:57:17;;;;;;;14.57;6.43;;;18.90;97.80;;;;;;6271720;22;20003;-82
2023/06/27 05:59:43;;;;;;;15.23;6.78;;;19.00;97.90;;;;;;6246537;22;20015;-81
2023/06/27 06:02:08;;;;;;;10.10;6.15;;;19.00;98.10;;;;;;6246422;22;20318;-81
2023/06/27 06:04:34;;;;;;;16.33;6.30;;;19.00;97.90;;;;;;6272670;22;20011;-81
2023/06/27 06:06:59;;;;;;;15.95;7.50;;;19.00;97.90;;;;;;6244733;22;20057;-81
2023/06/27 06:09:25;;;;;;;11.27;6.38;;;19.00;98.00;;;;;;6244884;22;20425;-81
2023/06/27 06:11:51;;;;;;;15.90;6.80;;;19.00;98.00;;;;;;6272312;22;20000;-82
2023/06/27 06:14:17;;;;;;;15.95;6.28;;;19.00;98.10;;;;;;6244506;22;19996;-81
2023/06/27 06:16:42;;;;;;;17.13;6.28;;;19.10;98.10;;;;;;6246775;22;20333;-81
2023/06/27 06:19:08;;;;;;;15.90;6.85;;;19.10;98.10;;;;;;6246488;22;20091;-81
2023/06/27 06:21:34;;;;;;;12.57;6.40;;;19.10;98.20;;;;;;6247576;22;20030;-81
2023/06/27 06:24:00;;;;;;;14.18;6.47;;;19.10;98.20;;;;;;6271787;22;20028;-81
2023/06/27 06:26:25;;;;;;;11.32;6.20;;;19.20;98.30;;;;;;6244675;22;20449;-81
2023/06/27 06:28:51;;;;;;;14.93;6.88;;;19.20;98.30;;;;;;6245039;22;20332;-81
2023/06/27 06:31:18;;;;;;;15.48;6.57;;;19.30;98.20;;;;;;6271736;22;19996;-81
2023/06/27 06:33:44;;;;;;;12.32;7.10;;;19.30;98.20;;;;;;6271804;22;20072;-80
2023/06/27 06:36:10;;;;;;;19.95;6.78;;;19.40;98.30;;;;;;6271948;22;20023;-81
2023/06/27 06:38:36;;;;;;;14.27;6.18;;;19.40;98.30;;;;;;6244806;22;20441;-81
2023/06/27 06:41:02;;;;;;;12.95;6.57;;;19.40;98.30;;;;;;6271801;22;20101;-82
2023/06/27 06:43:28;;;;;;;12.93;6.82;;;19.50;98.10;;;;;;6244684;22;20010;-82
2023/06/27 06:45:54;;;;;;;16.10;7.00;;;19.60;98.00;;;;;;6271940;22;20008;-80
2023/06/27 06:48:19;;;;;;;15.15;5.65;;;19.60;97.80;;;;;;6244252;22;20026;-81
2023/06/27 06:50:46;;;;;;;13.90;5.68;;;19.70;97.70;;;;;;6272181;22;20381;-81
2023/06/27 06:53:11;;;;;;;14.43;5.68;;;19.70;97.40;;;;;;6271376;22;20015;-81
2023/06/27 06:55:37;;;;;;;13.65;5.68;;;19.80;97.20;;;;;;6272096;22;20039;-80
2023/06/27 06:58:04;;;;;;;11.52;5.30;;;19.80;97.20;;;;;;6271342;22;20000;-81
2023/06/27 07:00:30;;;;;;;9.68;5.03;;;19.90;97.10;;;;;;6244538;22;20433;-81
2023/06/27 07:02:55;;;;;;;7.38;4.43;;;19.90;96.80;;;;;;6270935;22;20011;-81
2023/06/27 07:05:21;;;;;;;12.05;4.18;;;20.00;96.40;;;;;;6272010;22;20004;-80
2023/06/27 07:07:47;;;;;;;8.85;3.03;;;20.00;96.00;;;;;;6244516;22;20095;-81
2023/06/27 07:10:12;;;;;;;8.45;3.83;;;20.10;95.90;;;;;;6243955;22;20011;-80
2023/06/27 07:12:38;;;;;;;8.68;3.13;;;20.10;95.60;;;;;;6244710;22;20006;-81
2023/06/27 07:15:04;;;;;;;9.18;3.53;;;20.20;95.50;;;;;;6273164;22;20007;-80
2023/06/27 07:17:29;;;;;;;6.97;2.85;;;20.20;95.20;;;;;;6245798;22;20031;-79
2023/06/27 07:19:56;;;;;;;8.80;3.42;;;20.40;94.90;;;;;;6273698;22;20425;-80
2023/06/27 07:22:21;;;;;;;6.15;2.60;;;20.40;94.30;;;;;;6244132;22;20000;-79
2023/06/27 07:24:47;;;;;;;6.50;2.45;;;20.40;93.70;;;;;;6243908;22;20010;-80
2023/06/27 07:27:13;;;;;;;9.23;2.63;;;20.50;93.50;;;;;;6270214;22;20011;-80
2023/06/27 07:29:39;;;;;;;4.40;2.33;;;20.60;93.30;;;;;;6245604;22;20069;-81
2023/06/27 07:32:05;;;;;;;8.55;2.30;;;20.60;93.10;;;;;;6272373;22;19995;-79
2023/06/27 07:34:30;;;;;;;5.82;2.47;;;20.80;93.00;;;;;;6245124;22;20058;-80
2023/06/27 07:36:56;;;;;;;6.70;2.42;;;21.00;92.80;;;;;;6273015;22;20002;-79
2023/06/27 07:39:21;;;;;;;8.98;2.25;;;21.20;92.10;;;;;;6246033;22;19995;-80
2023/06/27 07:41:47;;;;;;;4.90;1.83;;;21.30;91.70;;;;;;6246672;22;19996;-79
2023/06/27 07:44:13;;;;;;;7.03;2.20;;;21.40;91.50;;;;;;6245865;22;20022;-81
2023/06/27 07:46:38;;;;;;;4.88;1.98;;;21.50;91.10;;;;;;6272991;22;20007;-80
2023/06/27 07:49:04;;;;;;;5.63;1.63;;;21.50;91.10;;;;;;6273173;22;20004;-80
2023/06/27 07:51:31;;;;;;;6.70;1.52;;;21.60;90.60;;;;;;6245882;22;20006;-79
2023/06/27 07:53:56;;;;;;;4.63;1.20;;;21.60;90.20;;;;;;6245830;22;19999;-80
2023/06/27 07:56:22;;;;;;;7.68;1.85;;;21.50;89.10;;;;;;6246070;22;19999;-79
2023/06/27 07:58:48;;;;;;;4.65;1.50;;;21.60;89.10;;;;;;6273547;22;20393;-79
2023/06/27 08:01:13;;;;;;;8.02;1.65;;;21.70;88.30;;;;;;6246311;22;20019;-80
2023/06/27 08:03:39;;;;;;;5.25;1.33;;;21.70;87.50;;;;;;6273681;22;20004;-80
2023/06/27 08:06:05;;;;;;;4.95;1.45;;;21.80;87.50;;;;;;6245933;22;20007;-80
2023/06/27 08:08:32;;;;;;;3.95;1.15;;;21.80;87.00;;;;;;6246210;22;20044;-78
2023/06/27 08:10:57;;;;;;;6.85;1.95;;;21.80;87.30;;;;;;6272836;22;20003;-79
2023/06/27 08:13:24;;;;;;;2.92;1.15;;;21.90;86.80;;;;;;6246145;22;20447;-80
2023/06/27 08:15:50;;;;;;;3.45;1.45;;;22.00;86.80;;;;;;6272647;22;20066;-79
2023/06/27 08:18:16;;;;;;;5.20;1.52;;;22.10;86.70;;;;;;6245555;22;20010;-79
2023/06/27 08:20:42;;;;;;;5.65;1.92;;;22.10;86.70;;;;;;6246057;22;20007;-79
2023/06/27 08:23:08;;;;;;;3.70;1.35;;;22.20;86.30;;;;;;6272697;22;20017;-80
2023/06/27 08:25:33;;;;;;;4.90;1.73;;;22.40;85.90;;;;;;6245293;22;20086;-79
2023/06/27 08:27:59;;;;;;;4.10;1.27;;;22.50;84.90;;;;;;6245515;22;20488;-80
2023/06/27 08:30:27;;;;;;;2.63;1.23;;;22.70;84.90;;;;;;6272424;22;20066;-80
2023/06/27 08:32:54;;;;;;;7.55;1.40;;;22.90;84.00;;;;;;6273232;22;20382;-79
2023/06/27 08:35:20;;;;;;;5.57;1.00;;;22.90;83.20;;;;;;6273003;22;19999;-79
2023/06/27 08:37:46;;;;;;;5.72;1.30;;;23.00;82.30;;;;;;6273182;22;20011;-80
2023/06/27 08:40:20;;;;;;;6.32;1.38;;;23.10;81.50;;;;;;6245376;22;20083;-79
2023/06/27 08:42:46;;;;;;;4.25;1.23;;;23.20;81.40;;;;;;6245534;22;20049;-80
2023/06/27 08:45:12;;;;;;;4.13;1.30;;;23.30;81.40;;;;;;6245978;22;20007;-79
2023/06/27 08:47:41;;;;;;;4.72;1.20;;;23.40;80.50;;;;;;6274089;22;20018;-80
2023/06/27 08:50:10;;;;;;;5.88;1.30;;;23.40;80.00;;;;;;6273030;22;20102;-80
2023/06/27 08:52:53;;;;;;;5.57;1.55;;;23.40;79.50;;;;;;6245654;22;20004;-79
2023/06/27 08:55:42;;;;;;;9.18;1.65;;;23.40;79.70;;;;;;6245779;22;20000;-80
2023/06/27 08:58:14;;;;;;;3.75;1.55;;;23.50;79.70;;;;;;6270731;22;20007;-80
2023/06/27 09:00:40;;;;;;;3.97;0.95;;;23.60;79.40;;;;;;6245669;22;20020;-79
2023/06/27 09:03:06;;;;;;;5.10;1.00;;;23.60;79.30;;;;;;6245141;22;20094;-80
2023/06/27 09:05:35;;;;;;;6.07;1.40;;;23.60;78.50;;;;;;6272703;22;20004;-79
2023/06/27 09:08:01;;;;;;;3.30;0.75;;;23.70;78.50;;;;;;6244847;22;20011;-80
2023/06/27 09:10:28;;;;;;;3.70;0.95;;;23.70;77.80;;;;;;6245579;22;20053;-79
2023/06/27 09:12:54;;;;;;;5.25;1.02;;;23.70;76.30;;;;;;6244618;22;20000;-81
2023/06/27 09:15:20;;;;;;;5.30;1.05;;;23.70;76.00;;;;;;6272645;22;20065;-80
2023/06/27 09:17:47;;;;;;;5.47;1.15;;;23.60;75.70;;;;;;6245486;22;20448;-80
2023/06/27 09:20:16;;;;;;;3.88;1.20;;;23.60;75.30;;;;;;6272259;22;20037;-80
2023/06/27 09:22:42;;;;;;;3.63;1.10;;;23.50;75.00;;;;;;6272554;22;20177;-80
2023/06/27 09:25:21;;;;;;;3.33;0.90;;;23.50;75.20;;;;;;6272307;22;20110;-80
2023/06/27 09:27:46;;;;;;;3.70;0.93;;;23.60;74.40;;;;;;6272102;22;20006;-80
2023/06/27 09:30:12;;;;;;;3.28;0.80;;;23.60;73.80;;;;;;6272771;22;20390;-80
2023/06/27 09:32:55;;;;;;;5.00;1.02;;;23.70;73.50;;;;;;6246493;22;20118;-80
2023/06/27 09:35:21;;;;;;;5.05;1.02;;;23.80;73.70;;;;;;6246593;22;20430;-80
2023/06/27 09:37:48;;;;;;;2.83;1.10;;;23.90;73.20;;;;;;6275333;22;20433;-80
2023/06/27 09:40:22;;;;;;;5.13;1.27;;;24.00;72.00;;;;;;6247684;22;20008;-81
2023/06/27 09:42:53;;;;;;;4.00;0.65;;;24.10;71.00;;;;;;6246327;22;20000;-80
2023/06/27 09:45:19;;;;;;;4.45;1.10;;;24.20;71.60;;;;;;6245147;22;20078;-81
2023/06/27 09:47:52;;;;;;;3.22;0.77;;;24.40;70.90;;;;;;6272498;22;20007;-80
2023/06/27 09:50:31;;;;;;;2.83;0.60;;;24.60;70.20;;;;;;6272775;22;20006;-80
2023/06/27 09:53:01;;;;;;;3.28;0.80;;;24.60;69.30;;;;;;6272135;22;20439;-80
2023/06/27 09:55:27;;;;;;;4.75;0.98;;;24.70;69.00;;;;;;6273834;22;20000;-81
2023/06/27 09:57:53;;;;;;;3.47;0.90;;;24.80;68.60;;;;;;6274491;22;20007;-81
2023/06/27 10:00:25;;;;;;;2.92;0.82;;;24.90;68.50;;;;;;6272882;22;20015;-80
2023/06/27 10:02:51;;;;;;;2.50;0.90;;;25.00;68.30;;;;;;6245091;22;20010;-80
2023/06/27 10:05:19;;;;;;;2.97;0.65;;;24.90;67.90;;;;;;6274642;22;20000;-81
2023/06/27 10:07:46;;;;;;;3.63;0.70;;;25.00;68.60;;;;;;6280597;22;20003;-84
2023/06/27 10:10:13;;;;;;;3.35;0.65;;;25.00;66.90;;;;;;6244537;22;20335;-85
2023/06/27 10:12:39;;;;;;;4.07;1.45;;;24.90;66.30;;;;;;6244503;22;20062;-84
2023/06/27 10:15:07;;;;;;;3.63;1.17;;;24.80;66.70;;;;;;6271573;22;20309;-83
2023/06/27 10:17:33;;;;;;;4.10;0.68;;;24.90;66.60;;;;;;6245575;22;20078;-84
2023/06/27 10:19:59;;;;;;;2.00;0.85;;;24.90;66.20;;;;;;6276652;22;20031;-84
2023/06/27 10:22:29;;;;;;;5.35;0.90;;;24.90;65.80;;;;;;6275828;22;20440;-84
2023/06/27 10:25:03;;;;;;;2.83;0.90;;;24.90;65.80;;;;;;6272457;22;20119;-83
2023/06/27 10:27:33;;;;;;;2.97;0.70;;;24.90;66.20;;;;;;6244530;22;20011;-84
2023/06/27 10:30:01;;;;;;;2.75;0.80;;;25.00;66.60;;;;;;6271499;22;20000;-83
2023/06/27 10:32:39;;;;;;;2.60;0.88;;;25.00;66.70;;;;;;6272235;22;20006;-84
2023/06/27 10:35:10;;;;;;;6.38;0.80;;;25.20;66.40;;;;;;6244603;22;20524;-86
2023/06/27 10:37:40;;;;;;;2.97;0.88;;;25.20;66.30;;;;;;6244841;22;20030;-85
2023/06/27 10:40:09;;;;;;;3.20;0.73;;;25.20;66.10;;;;;;6243927;22;20019;-82
2023/06/27 10:42:35;;;;;;;4.00;1.02;;;25.20;66.10;;;;;;6244588;22;20455;-84
2023/06/27 10:45:04;;;;;;;1.98;0.77;;;25.10;66.10;;;;;;6244218;22;20003;-84
2023/06/27 10:47:38;;;;;;;5.07;0.60;;;25.10;66.20;;;;;;6244570;22;20460;-84
2023/06/27 10:50:21;;;;;;;3.15;0.85;;;25.00;66.40;;;;;;6246506;22;20070;-84
2023/06/27 10:53:06;;;;;;;3.40;0.95;;;24.90;66.00;;;;;;6246861;22;20058;-84
2023/06/27 10:55:32;;;;;;;3.50;0.80;;;24.90;65.90;;;;;;6246541;22;19999;-83
2023/06/27 10:58:14;;;;;;;2.13;0.60;;;24.90;66.10;;;;;;6273500;22;20007;-85
2023/06/27 11:00:46;;;;;;;3.42;0.95;;;24.90;65.40;;;;;;6246406;22;20024;-84
2023/06/27 11:03:18;;;;;;;4.45;0.70;;;24.90;65.00;;;;;;6273745;22;20081;-85
2023/06/27 11:05:51;;;;;;;5.32;0.70;;;24.90;65.10;;;;;;6256949;22;20026;-86
2023/06/27 11:08:19;;;;;;;1.75;0.63;;;24.90;65.00;;;;;;6257548;22;20003;-84
2023/06/27 11:10:57;;;;;;;4.80;0.70;;;24.80;65.20;;;;;;6249110;22;20669;-84
2023/06/27 11:13:27;;;;;;;5.63;0.70;;;24.80;65.30;;;;;;6274124;22;20003;-84
2023/06/27 11:15:54;;;;;;;3.20;0.70;;;24.90;65.20;;;;;;6273876;22;20004;-84
2023/06/27 11:18:22;;;;;;;3.88;0.95;;;25.00;64.90;;;;;;6246960;22;20008;-85
2023/06/27 11:20:49;;;;;;;1.23;0.50;;;25.00;64.60;;;;;;6274034;22;20071;-85
2023/06/27 11:23:16;;;;;;;5.47;1.02;;;25.20;62.90;;;;;;6273219;22;20000;-85
2023/06/27 11:25:43;;;;;;;3.75;1.00;;;25.20;62.20;;;;;;6246449;22;20031;-84
2023/06/27 11:28:10;;;;;;;2.47;0.80;;;25.20;62.30;;;;;;6246500;22;20008;-86
2023/06/27 11:30:37;;;;;;;4.18;0.80;;;25.10;62.50;;;;;;6246508;22;20007;-87
2023/06/27 11:33:03;;;;;;;2.85;0.80;;;25.10;62.20;;;;;;6247054;22;20026;-86
2023/06/27 11:35:31;;;;;;;8.95;1.38;;;25.00;62.00;;;;;;6249661;22;20083;-83
2023/06/27 11:37:57;;;;;;;2.90;0.70;;;24.90;62.10;;;;;;6248654;22;20004;-83
2023/06/27 11:40:24;;;;;;;4.05;0.90;;;24.90;62.50;;;;;;6247190;22;20114;-85
2023/06/27 11:42:50;;;;;;;4.55;0.57;;;24.90;62.30;;;;;;6247165;22;20004;-85
2023/06/27 11:45:16;;;;;;;4.07;0.63;;;24.90;62.50;;;;;;6246245;22;20095;-84
2023/06/27 11:47:44;;;;;;;4.32;0.98;;;25.00;62.50;;;;;;6248710;22;20035;-86
2023/06/27 11:50:11;;;;;;;3.00;0.65;;;25.10;62.90;;;;;;6277276;22;20003;-85
2023/06/27 11:52:38;;;;;;;4.40;1.33;;;25.20;63.60;;;;;;6247253;22;20456;-86
2023/06/27 11:55:05;;;;;;;3.67;0.77;;;25.40;63.90;;;;;;6250512;22;20055;-84
2023/06/27 11:58:05;;;;;;;4.22;1.02;;;25.40;63.00;;;;;;6249225;22;20011;-85
2023/06/27 12:00:31;;;;;;;5.35;1.02;;;25.50;62.30;;;;;;6181603;22;20020;-85
2023/06/27 12:03:00;;;;;;;3.78;1.05;;;25.40;62.20;;;;;;6245891;22;20042;-84
2023/06/27 12:05:27;;;;;;;2.85;0.70;;;25.30;62.40;;;;;;6246319;22;20004;-83
2023/06/27 12:08:05;;;;;;;3.28;0.82;;;25.30;62.90;;;;;;6245196;22;20087;-84
2023/06/27 12:10:52;;;;;;;3.65;0.60;;;25.40;62.70;;;;;;6246085;22;20011;-84
2023/06/27 12:13:18;;;;;;;2.63;0.90;;;25.40;62.70;;;;;;6245701;22;20075;-82
2023/06/27 12:15:44;;;;;;;4.85;1.10;;;25.40;62.90;;;;;;6273697;22;20020;-84
2023/06/27 12:18:20;;;;;;;5.10;0.95;;;25.40;62.90;;;;;;6245757;22;20032;-84
2023/06/27 12:20:45;;;;;;;1.65;0.80;;;25.40;62.60;;;;;;6245856;22;20012;-82
2023/06/27 12:23:11;;;;;;;3.72;0.57;;;25.30;63.10;;;;;;6273108;22;20054;-83
2023/06/27 12:25:39;;;;;;;2.75;0.60;;;25.30;62.80;;;;;;6245934;22;19999;-85
2023/06/27 12:28:04;;;;;;;3.83;1.20;;;25.30;62.60;;;;;;6245417;22;20106;-83
2023/06/27 12:30:30;;;;;;;0.77;0.47;;;25.40;62.30;;;;;;6273187;22;20095;-84
2023/06/27 12:32:56;;;;;;;2.72;0.70;;;25.20;61.80;;;;;;6272842;22;20027;-81
2023/06/27 12:35:22;;;;;;;4.65;1.05;;;25.20;62.10;;;;;;6245306;22;20000;-83
2023/06/27 12:37:47;;;;;;;6.68;1.00;;;25.20;61.50;;;;;;6246234;22;20019;-83
2023/06/27 12:40:16;;;;;;;2.65;0.82;;;25.10;62.10;;;;;;6246219;22;20022;-83
2023/06/27 12:42:42;;;;;;;4.40;0.90;;;25.20;62.00;;;;;;6273556;22;20027;-83
2023/06/27 12:45:09;;;;;;;3.10;0.68;;;25.30;61.60;;;;;;6245606;22;20012;-83